sensor_id;sensor_type;location;lat;lon;timestamp;P1;durP1;ratioP1;P2;durP2;ratioP2
12962;SDS011;6546;49.882;8.666;2022-08-19T00:01:25;19.77;;;17.77;;
12962;SDS011;6546;49.882;8.666;2022-08-19T00:03:54;19.37;;;17.57;;
12962;SDS011;6546;49.882;8.666;2022-08-19T00:06:21;18.97;;;16.97;;
12962;SDS011;6546;49.882;8.666;2022-08-19T00:08:47;20.03;;;18.13;;
12962;SDS011;6546;49.882;8.666;2022-08-19T00:11:16;19.60;;;17.83;;
12962;SDS011;6546;49.882;8.666;2022-08-19T00:13:44;19.13;;;17.33;;
12962;SDS011;6546;49.882;8.666;2022-08-19T00:16:13;19.70;;;17.67;;
12962;SDS011;6546;49.882;8.666;2022-08-19T00:18:40;19.33;;;17.47;;
12962;SDS011;6546;49.882;8.666;2022-08-19T00:21:06;18.93;;;17.03;;
12962;SDS011;6546;49.882;8.666;2022-08-19T00:23:34;19.03;;;17.03;;
12962;SDS011;6546;49.882;8.666;2022-08-19T00:26:01;17.93;;;16.20;;
12962;SDS011;6546;49.882;8.666;2022-08-19T00:28:29;18.77;;;17.07;;
12962;SDS011;6546;49.882;8.666;2022-08-19T00:30:56;18.90;;;17.10;;
12962;SDS011;6546;49.882;8.666;2022-08-19T00:33:23;21.10;;;18.90;;
12962;SDS011;6546;49.882;8.666;2022-08-19T00:35:50;18.50;;;16.70;;
12962;SDS011;6546;49.882;8.666;2022-08-19T00:38:16;20.40;;;18.37;;
12962;SDS011;6546;49.882;8.666;2022-08-19T00:40:47;20.13;;;18.10;;
12962;SDS011;6546;49.882;8.666;2022-08-19T00:43:17;20.33;;;18.27;;
12962;SDS011;6546;49.882;8.666;2022-08-19T00:45:45;20.63;;;18.63;;
12962;SDS011;6546;49.882;8.666;2022-08-19T00:48:14;20.00;;;18.03;;
12962;SDS011;6546;49.882;8.666;2022-08-19T00:50:41;20.23;;;18.17;;
12962;SDS011;6546;49.882;8.666;2022-08-19T00:53:09;20.07;;;18.07;;
12962;SDS011;6546;49.882;8.666;2022-08-19T00:55:40;20.03;;;18.07;;
12962;SDS011;6546;49.882;8.666;2022-08-19T00:58:10;21.10;;;18.90;;
12962;SDS011;6546;49.882;8.666;2022-08-19T01:00:40;19.43;;;17.40;;
12962;SDS011;6546;49.882;8.666;2022-08-19T01:03:08;20.57;;;18.07;;
12962;SDS011;6546;49.882;8.666;2022-08-19T01:05:37;19.77;;;17.87;;
12962;SDS011;6546;49.882;8.666;2022-08-19T01:08:07;18.97;;;17.07;;
12962;SDS011;6546;49.882;8.666;2022-08-19T01:10:36;19.97;;;17.97;;
12962;SDS011;6546;49.882;8.666;2022-08-19T01:13:06;20.13;;;18.13;;
12962;SDS011;6546;49.882;8.666;2022-08-19T01:15:35;19.97;;;17.97;;
12962;SDS011;6546;49.882;8.666;2022-08-19T01:18:09;19.13;;;17.13;;
12962;SDS011;6546;49.882;8.666;2022-08-19T01:20:40;19.73;;;17.67;;
12962;SDS011;6546;49.882;8.666;2022-08-19T01:23:09;18.40;;;16.60;;
12962;SDS011;6546;49.882;8.666;2022-08-19T01:25:39;20.87;;;18.70;;
12962;SDS011;6546;49.882;8.666;2022-08-19T01:28:13;19.53;;;17.37;;
12962;SDS011;6546;49.882;8.666;2022-08-19T01:30:41;19.93;;;17.83;;
12962;SDS011;6546;49.882;8.666;2022-08-19T01:33:08;19.20;;;17.30;;
12962;SDS011;6546;49.882;8.666;2022-08-19T01:35:35;20.23;;;18.33;;
12962;SDS011;6546;49.882;8.666;2022-08-19T01:38:03;19.43;;;17.53;;
12962;SDS011;6546;49.882;8.666;2022-08-19T01:40:36;18.53;;;16.57;;
12962;SDS011;6546;49.882;8.666;2022-08-19T01:43:05;19.17;;;17.17;;
12962;SDS011;6546;49.882;8.666;2022-08-19T01:45:33;19.83;;;17.80;;
12962;SDS011;6546;49.882;8.666;2022-08-19T01:48:00;18.17;;;16.37;;
12962;SDS011;6546;49.882;8.666;2022-08-19T01:50:27;17.70;;;16.00;;
12962;SDS011;6546;49.882;8.666;2022-08-19T01:52:55;18.93;;;16.33;;
12962;SDS011;6546;49.882;8.666;2022-08-19T01:55:21;19.27;;;17.23;;
12962;SDS011;6546;49.882;8.666;2022-08-19T01:57:52;18.17;;;16.37;;
12962;SDS011;6546;49.882;8.666;2022-08-19T02:00:24;17.93;;;16.03;;
12962;SDS011;6546;49.882;8.666;2022-08-19T02:02:53;19.83;;;17.70;;
12962;SDS011;6546;49.882;8.666;2022-08-19T02:05:20;17.77;;;15.83;;
12962;SDS011;6546;49.882;8.666;2022-08-19T02:07:48;18.27;;;16.20;;
12962;SDS011;6546;49.882;8.666;2022-08-19T02:10:16;18.70;;;16.80;;
12962;SDS011;6546;49.882;8.666;2022-08-19T02:12:44;18.23;;;16.43;;
12962;SDS011;6546;49.882;8.666;2022-08-19T02:15:12;18.07;;;16.20;;
12962;SDS011;6546;49.882;8.666;2022-08-19T02:17:39;18.57;;;16.70;;
12962;SDS011;6546;49.882;8.666;2022-08-19T02:20:07;19.20;;;17.30;;
12962;SDS011;6546;49.882;8.666;2022-08-19T02:22:34;18.73;;;16.83;;
12962;SDS011;6546;49.882;8.666;2022-08-19T02:25:03;17.77;;;16.00;;
12962;SDS011;6546;49.882;8.666;2022-08-19T02:27:30;19.00;;;16.77;;
12962;SDS011;6546;49.882;8.666;2022-08-19T02:29:57;18.13;;;16.37;;
12962;SDS011;6546;49.882;8.666;2022-08-19T02:32:25;18.93;;;16.80;;
12962;SDS011;6546;49.882;8.666;2022-08-19T02:34:52;17.80;;;16.03;;
12962;SDS011;6546;49.882;8.666;2022-08-19T02:37:19;18.50;;;16.60;;
12962;SDS011;6546;49.882;8.666;2022-08-19T02:40:03;17.83;;;15.97;;
12962;SDS011;6546;49.882;8.666;2022-08-19T02:42:30;18.03;;;15.93;;
12962;SDS011;6546;49.882;8.666;2022-08-19T02:44:57;18.77;;;16.67;;
12962;SDS011;6546;49.882;8.666;2022-08-19T02:47:26;18.67;;;16.80;;
12962;SDS011;6546;49.882;8.666;2022-08-19T02:49:52;18.33;;;16.43;;
12962;SDS011;6546;49.882;8.666;2022-08-19T02:52:19;18.33;;;16.50;;
12962;SDS011;6546;49.882;8.666;2022-08-19T02:54:48;18.03;;;16.13;;
12962;SDS011;6546;49.882;8.666;2022-08-19T02:57:15;19.00;;;17.10;;
12962;SDS011;6546;49.882;8.666;2022-08-19T02:59:41;17.57;;;15.77;;
12962;SDS011;6546;49.882;8.666;2022-08-19T03:02:08;19.60;;;17.10;;
12962;SDS011;6546;49.882;8.666;2022-08-19T03:04:36;18.53;;;16.63;;
12962;SDS011;6546;49.882;8.666;2022-08-19T03:07:02;19.13;;;17.13;;
12962;SDS011;6546;49.882;8.666;2022-08-19T03:09:29;17.90;;;16.13;;
12962;SDS011;6546;49.882;8.666;2022-08-19T03:11:55;18.50;;;16.67;;
12962;SDS011;6546;49.882;8.666;2022-08-19T03:14:22;18.50;;;16.47;;
12962;SDS011;6546;49.882;8.666;2022-08-19T03:16:49;17.80;;;16.00;;
12962;SDS011;6546;49.882;8.666;2022-08-19T03:19:18;16.40;;;14.80;;
12962;SDS011;6546;49.882;8.666;2022-08-19T03:21:47;17.30;;;15.57;;
12962;SDS011;6546;49.882;8.666;2022-08-19T03:24:15;17.73;;;15.43;;
12962;SDS011;6546;49.882;8.666;2022-08-19T03:26:43;18.27;;;16.40;;
12962;SDS011;6546;49.882;8.666;2022-08-19T03:29:11;18.30;;;15.80;;
12962;SDS011;6546;49.882;8.666;2022-08-19T03:31:39;17.43;;;15.57;;
12962;SDS011;6546;49.882;8.666;2022-08-19T03:34:09;17.80;;;15.90;;
12962;SDS011;6546;49.882;8.666;2022-08-19T03:36:37;17.60;;;15.87;;
12962;SDS011;6546;49.882;8.666;2022-08-19T03:39:06;17.83;;;16.07;;
12962;SDS011;6546;49.882;8.666;2022-08-19T03:41:36;18.30;;;16.40;;
12962;SDS011;6546;49.882;8.666;2022-08-19T03:44:04;18.07;;;16.17;;
12962;SDS011;6546;49.882;8.666;2022-08-19T03:46:34;18.20;;;16.27;;
12962;SDS011;6546;49.882;8.666;2022-08-19T03:49:02;17.43;;;15.57;;
12962;SDS011;6546;49.882;8.666;2022-08-19T03:51:34;17.93;;;16.13;;
12962;SDS011;6546;49.882;8.666;2022-08-19T03:54:03;18.03;;;16.23;;
12962;SDS011;6546;49.882;8.666;2022-08-19T03:56:34;17.80;;;16.00;;
12962;SDS011;6546;49.882;8.666;2022-08-19T03:59:02;17.90;;;15.77;;
12962;SDS011;6546;49.882;8.666;2022-08-19T04:01:31;17.63;;;15.77;;
12962;SDS011;6546;49.882;8.666;2022-08-19T04:03:58;17.93;;;16.13;;
12962;SDS011;6546;49.882;8.666;2022-08-19T04:06:26;16.73;;;15.03;;
12962;SDS011;6546;49.882;8.666;2022-08-19T04:08:56;17.70;;;16.10;;
12962;SDS011;6546;49.882;8.666;2022-08-19T04:11:24;17.47;;;15.30;;
12962;SDS011;6546;49.882;8.666;2022-08-19T04:13:54;17.03;;;15.30;;
12962;SDS011;6546;49.882;8.666;2022-08-19T04:16:24;16.80;;;15.20;;
12962;SDS011;6546;49.882;8.666;2022-08-19T04:18:54;16.47;;;14.80;;
12962;SDS011;6546;49.882;8.666;2022-08-19T04:21:22;16.77;;;15.27;;
12962;SDS011;6546;49.882;8.666;2022-08-19T04:23:51;17.67;;;15.87;;
12962;SDS011;6546;49.882;8.666;2022-08-19T04:26:19;16.93;;;15.20;;
12962;SDS011;6546;49.882;8.666;2022-08-19T04:28:48;17.33;;;15.67;;
12962;SDS011;6546;49.882;8.666;2022-08-19T04:31:18;18.53;;;15.80;;
12962;SDS011;6546;49.882;8.666;2022-08-19T04:33:51;18.93;;;16.87;;
12962;SDS011;6546;49.882;8.666;2022-08-19T04:36:18;19.83;;;16.70;;
12962;SDS011;6546;49.882;8.666;2022-08-19T04:38:46;19.03;;;16.53;;
12962;SDS011;6546;49.882;8.666;2022-08-19T04:41:13;23.20;;;16.63;;
12962;SDS011;6546;49.882;8.666;2022-08-19T04:43:58;19.77;;;17.20;;
12962;SDS011;6546;49.882;8.666;2022-08-19T04:46:26;19.43;;;17.00;;
12962;SDS011;6546;49.882;8.666;2022-08-19T04:48:55;18.80;;;16.80;;
12962;SDS011;6546;49.882;8.666;2022-08-19T04:51:22;18.40;;;15.83;;
12962;SDS011;6546;49.882;8.666;2022-08-19T04:53:49;18.20;;;16.37;;
12962;SDS011;6546;49.882;8.666;2022-08-19T04:56:16;20.40;;;16.17;;
12962;SDS011;6546;49.882;8.666;2022-08-19T04:58:44;21.20;;;15.93;;
12962;SDS011;6546;49.882;8.666;2022-08-19T05:01:11;17.73;;;15.77;;
12962;SDS011;6546;49.882;8.666;2022-08-19T05:03:40;18.67;;;16.40;;
12962;SDS011;6546;49.882;8.666;2022-08-19T05:06:08;18.60;;;16.70;;
12962;SDS011;6546;49.882;8.666;2022-08-19T05:08:37;20.50;;;16.83;;
12962;SDS011;6546;49.882;8.666;2022-08-19T05:11:08;17.40;;;15.50;;
12962;SDS011;6546;49.882;8.666;2022-08-19T05:13:40;18.10;;;16.20;;
12962;SDS011;6546;49.882;8.666;2022-08-19T05:16:07;19.30;;;16.53;;
12962;SDS011;6546;49.882;8.666;2022-08-19T05:18:33;18.93;;;15.93;;
12962;SDS011;6546;49.882;8.666;2022-08-19T05:21:19;17.90;;;16.00;;
12962;SDS011;6546;49.882;8.666;2022-08-19T05:24:04;18.23;;;16.33;;
12962;SDS011;6546;49.882;8.666;2022-08-19T05:26:33;16.97;;;15.13;;
12962;SDS011;6546;49.882;8.666;2022-08-19T05:29:00;20.10;;;16.37;;
12962;SDS011;6546;49.882;8.666;2022-08-19T05:31:28;19.20;;;16.97;;
12962;SDS011;6546;49.882;8.666;2022-08-19T05:33:54;18.40;;;16.33;;
12962;SDS011;6546;49.882;8.666;2022-08-19T05:36:24;18.10;;;16.20;;
12962;SDS011;6546;49.882;8.666;2022-08-19T05:38:51;20.20;;;17.13;;
12962;SDS011;6546;49.882;8.666;2022-08-19T05:41:19;18.07;;;16.27;;
12962;SDS011;6546;49.882;8.666;2022-08-19T05:43:48;18.30;;;16.17;;
12962;SDS011;6546;49.882;8.666;2022-08-19T05:46:16;17.53;;;15.67;;
12962;SDS011;6546;49.882;8.666;2022-08-19T05:48:44;17.87;;;16.00;;
12962;SDS011;6546;49.882;8.666;2022-08-19T05:51:11;18.43;;;16.50;;
12962;SDS011;6546;49.882;8.666;2022-08-19T05:53:39;17.40;;;15.63;;
12962;SDS011;6546;49.882;8.666;2022-08-19T05:56:06;16.93;;;15.30;;
12962;SDS011;6546;49.882;8.666;2022-08-19T05:58:34;17.63;;;15.73;;
12962;SDS011;6546;49.882;8.666;2022-08-19T06:01:00;17.03;;;15.33;;
12962;SDS011;6546;49.882;8.666;2022-08-19T06:03:30;18.10;;;16.20;;
12962;SDS011;6546;49.882;8.666;2022-08-19T06:05:57;16.90;;;14.63;;
12962;SDS011;6546;49.882;8.666;2022-08-19T06:08:25;19.07;;;16.10;;
12962;SDS011;6546;49.882;8.666;2022-08-19T06:10:53;18.33;;;16.43;;
12962;SDS011;6546;49.882;8.666;2022-08-19T06:13:21;19.47;;;15.13;;
12962;SDS011;6546;49.882;8.666;2022-08-19T06:15:49;17.10;;;14.93;;
12962;SDS011;6546;49.882;8.666;2022-08-19T06:18:15;17.40;;;15.63;;
12962;SDS011;6546;49.882;8.666;2022-08-19T06:20:42;16.40;;;14.70;;
12962;SDS011;6546;49.882;8.666;2022-08-19T06:23:09;15.67;;;14.17;;
12962;SDS011;6546;49.882;8.666;2022-08-19T06:25:35;16.83;;;14.20;;
12962;SDS011;6546;49.882;8.666;2022-08-19T06:28:03;14.90;;;13.40;;
12962;SDS011;6546;49.882;8.666;2022-08-19T06:30:30;14.83;;;13.37;;
12962;SDS011;6546;49.882;8.666;2022-08-19T06:32:57;15.67;;;14.17;;
12962;SDS011;6546;49.882;8.666;2022-08-19T06:35:24;17.77;;;14.60;;
12962;SDS011;6546;49.882;8.666;2022-08-19T06:37:50;15.27;;;13.77;;
12962;SDS011;6546;49.882;8.666;2022-08-19T06:40:17;14.40;;;13.00;;
12962;SDS011;6546;49.882;8.666;2022-08-19T06:42:44;14.50;;;13.10;;
12962;SDS011;6546;49.882;8.666;2022-08-19T06:45:12;14.73;;;13.13;;
12962;SDS011;6546;49.882;8.666;2022-08-19T06:47:39;14.30;;;12.90;;
12962;SDS011;6546;49.882;8.666;2022-08-19T06:50:13;16.37;;;13.00;;
12962;SDS011;6546;49.882;8.666;2022-08-19T06:52:39;13.53;;;12.00;;
12962;SDS011;6546;49.882;8.666;2022-08-19T06:55:06;14.90;;;12.27;;
12962;SDS011;6546;49.882;8.666;2022-08-19T06:57:33;13.50;;;12.17;;
12962;SDS011;6546;49.882;8.666;2022-08-19T07:00:00;12.80;;;11.50;;
12962;SDS011;6546;49.882;8.666;2022-08-19T07:02:28;13.57;;;12.27;;
12962;SDS011;6546;49.882;8.666;2022-08-19T07:04:55;13.77;;;12.37;;
12962;SDS011;6546;49.882;8.666;2022-08-19T07:07:23;13.37;;;10.77;;
12962;SDS011;6546;49.882;8.666;2022-08-19T07:09:50;13.67;;;11.00;;
12962;SDS011;6546;49.882;8.666;2022-08-19T07:12:18;11.77;;;10.20;;
12962;SDS011;6546;49.882;8.666;2022-08-19T07:14:44;12.27;;;9.50;;
12962;SDS011;6546;49.882;8.666;2022-08-19T07:17:12;13.20;;;10.23;;
12962;SDS011;6546;49.882;8.666;2022-08-19T07:19:40;12.30;;;9.53;;
12962;SDS011;6546;49.882;8.666;2022-08-19T07:22:08;11.67;;;10.50;;
12962;SDS011;6546;49.882;8.666;2022-08-19T07:24:36;11.80;;;10.70;;
12962;SDS011;6546;49.882;8.666;2022-08-19T07:27:04;10.37;;;9.23;;
12962;SDS011;6546;49.882;8.666;2022-08-19T07:29:33;9.70;;;8.80;;
12962;SDS011;6546;49.882;8.666;2022-08-19T07:32:01;9.93;;;9.03;;
12962;SDS011;6546;49.882;8.666;2022-08-19T07:34:30;10.40;;;9.40;;
12962;SDS011;6546;49.882;8.666;2022-08-19T07:37:03;10.03;;;9.03;;
12962;SDS011;6546;49.882;8.666;2022-08-19T07:39:31;12.00;;;9.23;;
12962;SDS011;6546;49.882;8.666;2022-08-19T07:42:02;11.87;;;9.57;;
12962;SDS011;6546;49.882;8.666;2022-08-19T07:44:32;11.07;;;9.97;;
12962;SDS011;6546;49.882;8.666;2022-08-19T07:47:02;10.73;;;9.73;;
12962;SDS011;6546;49.882;8.666;2022-08-19T07:49:30;10.67;;;8.87;;
12962;SDS011;6546;49.882;8.666;2022-08-19T07:51:57;10.90;;;9.77;;
12962;SDS011;6546;49.882;8.666;2022-08-19T07:54:29;10.47;;;9.30;;
12962;SDS011;6546;49.882;8.666;2022-08-19T07:56:59;9.47;;;8.67;;
12962;SDS011;6546;49.882;8.666;2022-08-19T07:59:26;10.57;;;9.37;;
12962;SDS011;6546;49.882;8.666;2022-08-19T08:01:54;10.27;;;9.27;;
12962;SDS011;6546;49.882;8.666;2022-08-19T08:04:21;9.37;;;8.47;;
12962;SDS011;6546;49.882;8.666;2022-08-19T08:07:06;8.60;;;7.67;;
12962;SDS011;6546;49.882;8.666;2022-08-19T08:09:52;8.53;;;7.63;;
12962;SDS011;6546;49.882;8.666;2022-08-19T08:12:20;8.50;;;7.57;;
12962;SDS011;6546;49.882;8.666;2022-08-19T08:14:50;8.00;;;7.20;;
12962;SDS011;6546;49.882;8.666;2022-08-19T08:17:19;8.37;;;7.53;;
12962;SDS011;6546;49.882;8.666;2022-08-19T08:19:48;9.33;;;8.30;;
12962;SDS011;6546;49.882;8.666;2022-08-19T08:22:16;8.73;;;7.37;;
12962;SDS011;6546;49.882;8.666;2022-08-19T08:25:03;9.97;;;7.40;;
12962;SDS011;6546;49.882;8.666;2022-08-19T08:27:31;7.50;;;6.80;;
12962;SDS011;6546;49.882;8.666;2022-08-19T08:29:57;8.40;;;5.40;;
12962;SDS011;6546;49.882;8.666;2022-08-19T08:32:24;5.83;;;5.27;;
12962;SDS011;6546;49.882;8.666;2022-08-19T08:34:52;5.63;;;4.70;;
12962;SDS011;6546;49.882;8.666;2022-08-19T08:37:19;6.07;;;4.67;;
12962;SDS011;6546;49.882;8.666;2022-08-19T08:39:47;5.63;;;4.83;;
12962;SDS011;6546;49.882;8.666;2022-08-19T08:42:16;5.33;;;4.73;;
12962;SDS011;6546;49.882;8.666;2022-08-19T08:44:48;4.83;;;4.33;;
12962;SDS011;6546;49.882;8.666;2022-08-19T08:47:19;5.30;;;4.80;;
12962;SDS011;6546;49.882;8.666;2022-08-19T08:49:49;5.63;;;4.67;;
12962;SDS011;6546;49.882;8.666;2022-08-19T08:52:21;5.47;;;4.87;;
12962;SDS011;6546;49.882;8.666;2022-08-19T08:54:53;5.40;;;4.90;;
12962;SDS011;6546;49.882;8.666;2022-08-19T08:57:25;5.43;;;4.93;;
12962;SDS011;6546;49.882;8.666;2022-08-19T08:59:57;5.20;;;4.73;;
12962;SDS011;6546;49.882;8.666;2022-08-19T09:02:27;6.40;;;4.50;;
12962;SDS011;6546;49.882;8.666;2022-08-19T09:04:54;4.90;;;4.40;;
12962;SDS011;6546;49.882;8.666;2022-08-19T09:07:24;7.07;;;4.30;;
12962;SDS011;6546;49.882;8.666;2022-08-19T09:10:10;5.60;;;4.30;;
12962;SDS011;6546;49.882;8.666;2022-08-19T09:12:46;4.77;;;4.37;;
12962;SDS011;6546;49.882;8.666;2022-08-19T09:15:22;4.80;;;4.40;;
12962;SDS011;6546;49.882;8.666;2022-08-19T09:17:54;5.37;;;4.87;;
12962;SDS011;6546;49.882;8.666;2022-08-19T09:20:26;5.17;;;4.67;;
12962;SDS011;6546;49.882;8.666;2022-08-19T09:22:53;4.77;;;4.23;;
12962;SDS011;6546;49.882;8.666;2022-08-19T09:25:21;5.03;;;4.53;;
12962;SDS011;6546;49.882;8.666;2022-08-19T09:27:50;6.20;;;4.50;;
12962;SDS011;6546;49.882;8.666;2022-08-19T09:30:19;5.07;;;4.60;;
12962;SDS011;6546;49.882;8.666;2022-08-19T09:32:48;4.90;;;4.40;;
12962;SDS011;6546;49.882;8.666;2022-08-19T09:35:17;7.13;;;5.10;;
12962;SDS011;6546;49.882;8.666;2022-08-19T09:37:44;5.60;;;4.77;;
12962;SDS011;6546;49.882;8.666;2022-08-19T09:40:11;7.30;;;5.80;;
12962;SDS011;6546;49.882;8.666;2022-08-19T09:42:38;9.43;;;5.40;;
12962;SDS011;6546;49.882;8.666;2022-08-19T09:45:07;8.20;;;5.10;;
12962;SDS011;6546;49.882;8.666;2022-08-19T09:47:34;7.87;;;5.80;;
12962;SDS011;6546;49.882;8.666;2022-08-19T09:50:03;13.20;;;5.53;;
12962;SDS011;6546;49.882;8.666;2022-08-19T09:52:30;6.80;;;6.17;;
12962;SDS011;6546;49.882;8.666;2022-08-19T09:54:57;8.00;;;6.40;;
12962;SDS011;6546;49.882;8.666;2022-08-19T09:57:24;6.73;;;6.13;;
12962;SDS011;6546;49.882;8.666;2022-08-19T09:59:50;5.77;;;5.33;;
12962;SDS011;6546;49.882;8.666;2022-08-19T10:02:19;9.30;;;7.13;;
12962;SDS011;6546;49.882;8.666;2022-08-19T10:04:47;6.37;;;5.77;;
12962;SDS011;6546;49.882;8.666;2022-08-19T10:07:40;6.83;;;6.17;;
12962;SDS011;6546;49.882;8.666;2022-08-19T10:10:07;6.43;;;5.80;;
12962;SDS011;6546;49.882;8.666;2022-08-19T10:12:34;7.53;;;6.67;;
12962;SDS011;6546;49.882;8.666;2022-08-19T10:15:02;7.37;;;6.77;;
12962;SDS011;6546;49.882;8.666;2022-08-19T10:17:30;6.90;;;6.23;;
12962;SDS011;6546;49.882;8.666;2022-08-19T10:19:58;6.60;;;5.93;;
12962;SDS011;6546;49.882;8.666;2022-08-19T10:22:24;7.10;;;6.50;;
12962;SDS011;6546;49.882;8.666;2022-08-19T10:24:51;7.40;;;6.40;;
12962;SDS011;6546;49.882;8.666;2022-08-19T10:27:18;7.10;;;6.37;;
12962;SDS011;6546;49.882;8.666;2022-08-19T10:29:45;7.17;;;6.47;;
12962;SDS011;6546;49.882;8.666;2022-08-19T10:32:12;7.33;;;6.63;;
12962;SDS011;6546;49.882;8.666;2022-08-19T10:34:41;7.50;;;6.07;;
12962;SDS011;6546;49.882;8.666;2022-08-19T10:37:07;7.17;;;6.03;;
12962;SDS011;6546;49.882;8.666;2022-08-19T10:39:34;7.87;;;7.07;;
12962;SDS011;6546;49.882;8.666;2022-08-19T10:42:04;7.80;;;7.03;;
12962;SDS011;6546;49.882;8.666;2022-08-19T10:44:31;8.60;;;7.80;;
12962;SDS011;6546;49.882;8.666;2022-08-19T10:47:00;9.17;;;7.40;;
12962;SDS011;6546;49.882;8.666;2022-08-19T10:49:27;7.27;;;6.67;;
12962;SDS011;6546;49.882;8.666;2022-08-19T10:51:56;8.57;;;7.20;;
12962;SDS011;6546;49.882;8.666;2022-08-19T10:54:40;8.50;;;7.60;;
12962;SDS011;6546;49.882;8.666;2022-08-19T10:57:24;7.80;;;7.00;;
12962;SDS011;6546;49.882;8.666;2022-08-19T10:59:54;7.73;;;7.03;;
12962;SDS011;6546;49.882;8.666;2022-08-19T11:02:21;8.20;;;6.70;;
12962;SDS011;6546;49.882;8.666;2022-08-19T11:04:48;6.63;;;6.03;;
12962;SDS011;6546;49.882;8.666;2022-08-19T11:07:17;8.63;;;7.60;;
12962;SDS011;6546;49.882;8.666;2022-08-19T11:09:44;7.30;;;6.70;;
12962;SDS011;6546;49.882;8.666;2022-08-19T11:12:12;7.50;;;6.70;;
12962;SDS011;6546;49.882;8.666;2022-08-19T11:14:40;7.70;;;7.10;;
12962;SDS011;6546;49.882;8.666;2022-08-19T11:17:06;7.17;;;6.47;;
12962;SDS011;6546;49.882;8.666;2022-08-19T11:19:33;7.30;;;6.70;;
12962;SDS011;6546;49.882;8.666;2022-08-19T11:22:00;6.97;;;6.28;;
12962;SDS011;6546;49.882;8.666;2022-08-19T11:24:29;6.83;;;6.23;;
12962;SDS011;6546;49.882;8.666;2022-08-19T11:27:03;6.33;;;5.80;;
12962;SDS011;6546;49.882;8.666;2022-08-19T11:29:32;6.03;;;5.33;;
12962;SDS011;6546;49.882;8.666;2022-08-19T11:31:59;5.53;;;5.03;;
12962;SDS011;6546;49.882;8.666;2022-08-19T11:34:29;6.82;;;5.38;;
12962;SDS011;6546;49.882;8.666;2022-08-19T11:36:56;8.35;;;5.80;;
12962;SDS011;6546;49.882;8.666;2022-08-19T11:39:25;6.23;;;5.63;;
12962;SDS011;6546;49.882;8.666;2022-08-19T11:41:57;6.95;;;5.88;;
12962;SDS011;6546;49.882;8.666;2022-08-19T11:44:24;6.35;;;5.82;;
12962;SDS011;6546;49.882;8.666;2022-08-19T11:46:52;7.75;;;5.80;;
12962;SDS011;6546;49.882;8.666;2022-08-19T11:49:21;6.20;;;5.80;;
12962;SDS011;6546;49.882;8.666;2022-08-19T11:51:47;6.60;;;6.10;;
12962;SDS011;6546;49.882;8.666;2022-08-19T11:54:15;7.43;;;6.82;;
12962;SDS011;6546;49.882;8.666;2022-08-19T11:56:43;8.27;;;7.20;;
12962;SDS011;6546;49.882;8.666;2022-08-19T11:59:11;8.07;;;7.35;;
12962;SDS011;6546;49.882;8.666;2022-08-19T12:01:38;8.25;;;7.65;;
12962;SDS011;6546;49.882;8.666;2022-08-19T12:04:08;9.82;;;8.98;;
12962;SDS011;6546;49.882;8.666;2022-08-19T12:06:36;9.03;;;8.23;;
12962;SDS011;6546;49.882;8.666;2022-08-19T12:09:06;9.98;;;8.85;;
12962;SDS011;6546;49.882;8.666;2022-08-19T12:11:35;9.98;;;8.50;;
12962;SDS011;6546;49.882;8.666;2022-08-19T12:14:03;9.38;;;8.57;;
12962;SDS011;6546;49.882;8.666;2022-08-19T12:16:31;9.65;;;8.75;;
12962;SDS011;6546;49.882;8.666;2022-08-19T12:18:58;9.20;;;8.38;;
12962;SDS011;6546;49.882;8.666;2022-08-19T12:21:29;8.68;;;7.97;;
12962;SDS011;6546;49.882;8.666;2022-08-19T12:23:59;9.90;;;9.00;;
12962;SDS011;6546;49.882;8.666;2022-08-19T12:26:27;9.70;;;8.70;;
12962;SDS011;6546;49.882;8.666;2022-08-19T12:28:56;9.30;;;8.50;;
12962;SDS011;6546;49.882;8.666;2022-08-19T12:31:24;9.50;;;8.57;;
12962;SDS011;6546;49.882;8.666;2022-08-19T12:33:52;9.88;;;8.10;;
12962;SDS011;6546;49.882;8.666;2022-08-19T12:36:19;9.35;;;8.52;;
12962;SDS011;6546;49.882;8.666;2022-08-19T12:38:47;9.02;;;8.23;;
12962;SDS011;6546;49.882;8.666;2022-08-19T12:41:14;8.50;;;7.70;;
12962;SDS011;6546;49.882;8.666;2022-08-19T12:43:43;9.40;;;8.60;;
12962;SDS011;6546;49.882;8.666;2022-08-19T12:46:10;8.43;;;7.72;;
12962;SDS011;6546;49.882;8.666;2022-08-19T12:48:39;8.55;;;7.68;;
12962;SDS011;6546;49.882;8.666;2022-08-19T12:51:09;7.85;;;7.25;;
12962;SDS011;6546;49.882;8.666;2022-08-19T12:53:38;6.85;;;6.20;;
12962;SDS011;6546;49.882;8.666;2022-08-19T12:56:05;6.78;;;6.10;;
12962;SDS011;6546;49.882;8.666;2022-08-19T12:58:32;6.70;;;6.10;;
12962;SDS011;6546;49.882;8.666;2022-08-19T13:00:59;6.70;;;6.10;;
12962;SDS011;6546;49.882;8.666;2022-08-19T13:03:31;7.28;;;5.70;;
12962;SDS011;6546;49.882;8.666;2022-08-19T13:05:58;6.00;;;5.40;;
12962;SDS011;6546;49.882;8.666;2022-08-19T13:08:26;5.05;;;4.55;;
12962;SDS011;6546;49.882;8.666;2022-08-19T13:10:52;4.75;;;4.40;;
12962;SDS011;6546;49.882;8.666;2022-08-19T13:13:20;4.90;;;4.50;;
12962;SDS011;6546;49.882;8.666;2022-08-19T13:15:47;5.05;;;4.72;;
12962;SDS011;6546;49.882;8.666;2022-08-19T13:18:14;4.18;;;3.88;;
12962;SDS011;6546;49.882;8.666;2022-08-19T13:20:40;4.53;;;4.20;;
12962;SDS011;6546;49.882;8.666;2022-08-19T13:23:07;4.15;;;3.75;;
12962;SDS011;6546;49.882;8.666;2022-08-19T13:25:35;5.20;;;4.70;;
12962;SDS011;6546;49.882;8.666;2022-08-19T13:28:02;7.30;;;4.65;;
12962;SDS011;6546;49.882;8.666;2022-08-19T13:30:31;4.50;;;4.20;;
12962;SDS011;6546;49.882;8.666;2022-08-19T13:33:16;5.97;;;4.15;;
12962;SDS011;6546;49.882;8.666;2022-08-19T13:35:44;4.35;;;4.00;;
12962;SDS011;6546;49.882;8.666;2022-08-19T13:38:13;4.90;;;4.30;;
12962;SDS011;6546;49.882;8.666;2022-08-19T13:40:42;3.60;;;3.30;;
12962;SDS011;6546;49.882;8.666;2022-08-19T13:43:10;4.43;;;4.03;;
12962;SDS011;6546;49.882;8.666;2022-08-19T13:45:36;4.38;;;4.07;;
12962;SDS011;6546;49.882;8.666;2022-08-19T13:48:04;6.40;;;4.50;;
12962;SDS011;6546;49.882;8.666;2022-08-19T13:50:33;6.40;;;4.40;;
12962;SDS011;6546;49.882;8.666;2022-08-19T13:53:02;4.32;;;4.00;;
12962;SDS011;6546;49.882;8.666;2022-08-19T13:55:29;4.40;;;4.00;;
12962;SDS011;6546;49.882;8.666;2022-08-19T13:57:58;4.20;;;3.83;;
12962;SDS011;6546;49.882;8.666;2022-08-19T14:00:28;4.70;;;3.97;;
12962;SDS011;6546;49.882;8.666;2022-08-19T14:02:56;4.20;;;3.80;;
12962;SDS011;6546;49.882;8.666;2022-08-19T14:05:24;3.92;;;3.35;;
12962;SDS011;6546;49.882;8.666;2022-08-19T14:07:52;4.35;;;3.28;;
12962;SDS011;6546;49.882;8.666;2022-08-19T14:10:20;3.58;;;3.30;;
12962;SDS011;6546;49.882;8.666;2022-08-19T14:12:48;3.78;;;3.47;;
12962;SDS011;6546;49.882;8.666;2022-08-19T14:15:16;3.58;;;3.30;;
12962;SDS011;6546;49.882;8.666;2022-08-19T14:17:43;4.85;;;3.15;;
12962;SDS011;6546;49.882;8.666;2022-08-19T14:20:14;5.37;;;3.50;;
12962;SDS011;6546;49.882;8.666;2022-08-19T14:22:41;4.55;;;3.30;;
12962;SDS011;6546;49.882;8.666;2022-08-19T14:25:09;4.78;;;3.42;;
12962;SDS011;6546;49.882;8.666;2022-08-19T14:27:38;4.18;;;3.78;;
12962;SDS011;6546;49.882;8.666;2022-08-19T14:30:06;4.00;;;3.70;;
12962;SDS011;6546;49.882;8.666;2022-08-19T14:32:36;3.55;;;3.15;;
12962;SDS011;6546;49.882;8.666;2022-08-19T14:35:03;3.17;;;2.95;;
12962;SDS011;6546;49.882;8.666;2022-08-19T14:37:30;2.60;;;2.40;;
12962;SDS011;6546;49.882;8.666;2022-08-19T14:39:59;3.28;;;2.90;;
12962;SDS011;6546;49.882;8.666;2022-08-19T14:42:25;3.20;;;2.90;;
12962;SDS011;6546;49.882;8.666;2022-08-19T14:44:52;7.47;;;2.70;;
12962;SDS011;6546;49.882;8.666;2022-08-19T14:47:20;3.53;;;3.15;;
12962;SDS011;6546;49.882;8.666;2022-08-19T14:49:48;3.80;;;2.78;;
12962;SDS011;6546;49.882;8.666;2022-08-19T14:52:15;3.72;;;3.42;;
12962;SDS011;6546;49.882;8.666;2022-08-19T14:54:42;5.40;;;3.13;;
12962;SDS011;6546;49.882;8.666;2022-08-19T14:57:12;3.50;;;3.28;;